sensor_id;sensor_type;location;lat;lon;timestamp;pressure;altitude;pressure_sealevel;temperature;humidity
23659;BME280;12006;42.666;23.326;2023-07-31T00:01:10;-24515.72;;;21.50;100.00
23659;BME280;12006;42.666;23.326;2023-07-31T00:03:35;-24516.38;;;21.52;100.00
23659;BME280;12006;42.666;23.326;2023-07-31T00:06:01;-24517.59;;;21.56;100.00
23659;BME280;12006;42.666;23.326;2023-07-31T00:08:26;-24518.09;;;21.57;100.00
23659;BME280;12006;42.666;23.326;2023-07-31T00:10:52;-24519.28;;;21.61;100.00
23659;BME280;12006;42.666;23.326;2023-07-31T00:13:18;-24519.97;;;21.63;100.00
23659;BME280;12006;42.666;23.326;2023-07-31T00:15:43;-24521.84;;;21.68;100.00
23659;BME280;12006;42.666;23.326;2023-07-31T00:18:09;-24520.81;;;21.65;100.00
23659;BME280;12006;42.666;23.326;2023-07-31T00:20:34;-24521.50;;;21.67;100.00
23659;BME280;12006;42.666;23.326;2023-07-31T00:22:59;-24526.09;;;21.81;100.00
23659;BME280;12006;42.666;23.326;2023-07-31T00:25:25;-24526.94;;;21.83;100.00
23659;BME280;12006;42.666;23.326;2023-07-31T00:27:50;-24517.59;;;21.56;100.00
23659;BME280;12006;42.666;23.326;2023-07-31T00:30:16;-24506.00;;;21.22;100.00
23659;BME280;12006;42.666;23.326;2023-07-31T00:32:41;-24147.19;;;20.92;100.00
23659;BME280;12006;42.666;23.326;2023-07-31T00:35:07;-12213.88;;;20.67;100.00
23659;BME280;12006;42.666;23.326;2023-07-31T00:37:32;1810.94;;;20.45;100.00
23659;BME280;12006;42.666;23.326;2023-07-31T00:39:57;9841.16;;;20.35;100.00
23659;BME280;12006;42.666;23.326;2023-07-31T00:42:24;14555.78;;;20.29;100.00
23659;BME280;12006;42.666;23.326;2023-07-31T00:44:49;19330.69;;;20.21;100.00
23659;BME280;12006;42.666;23.326;2023-07-31T00:47:15;25624.09;;;20.10;100.00
23659;BME280;12006;42.666;23.326;2023-07-31T00:49:40;28429.53;;;20.17;100.00
23659;BME280;12006;42.666;23.326;2023-07-31T00:52:06;30640.78;;;20.26;100.00
23659;BME280;12006;42.666;23.326;2023-07-31T00:54:32;32186.53;;;20.25;100.00
23659;BME280;12006;42.666;23.326;2023-07-31T00:56:57;33070.41;;;20.27;100.00
23659;BME280;12006;42.666;23.326;2023-07-31T00:59:23;33404.25;;;20.28;100.00
23659;BME280;12006;42.666;23.326;2023-07-31T01:01:48;34543.72;;;20.36;100.00
23659;BME280;12006;42.666;23.326;2023-07-31T01:04:15;34092.88;;;20.38;100.00
23659;BME280;12006;42.666;23.326;2023-07-31T01:06:59;32778.53;;;20.63;100.00
23659;BME280;12006;42.666;23.326;2023-07-31T01:09:47;30852.94;;;20.70;100.00
23659;BME280;12006;42.666;23.326;2023-07-31T01:12:15;29336.63;;;20.75;100.00
23659;BME280;12006;42.666;23.326;2023-07-31T01:15:05;29684.16;;;20.73;100.00
23659;BME280;12006;42.666;23.326;2023-07-31T01:17:31;26021.22;;;20.59;100.00
23659;BME280;12006;42.666;23.326;2023-07-31T01:20:02;26989.84;;;20.59;100.00
23659;BME280;12006;42.666;23.326;2023-07-31T01:28:20;25867.00;;;20.58;100.00
23659;BME280;12006;42.666;23.326;2023-07-31T01:30:50;25831.22;;;20.69;100.00
23659;BME280;12006;42.666;23.326;2023-07-31T01:33:16;24562.47;;;20.73;100.00
23659;BME280;12006;42.666;23.326;2023-07-31T01:35:45;23769.47;;;20.75;100.00
23659;BME280;12006;42.666;23.326;2023-07-31T01:38:11;23538.44;;;20.69;100.00
23659;BME280;12006;42.666;23.326;2023-07-31T01:40:37;24157.25;;;20.61;100.00
23659;BME280;12006;42.666;23.326;2023-07-31T01:43:02;24022.53;;;20.57;100.00
23659;BME280;12006;42.666;23.326;2023-07-31T01:45:28;24850.00;;;20.58;100.00
23659;BME280;12006;42.666;23.326;2023-07-31T01:47:53;25014.63;;;20.59;100.00
23659;BME280;12006;42.666;23.326;2023-07-31T01:50:19;24961.06;;;20.60;100.00
23659;BME280;12006;42.666;23.326;2023-07-31T01:52:44;24479.50;;;20.60;100.00
23659;BME280;12006;42.666;23.326;2023-07-31T01:55:09;24900.03;;;20.61;100.00
23659;BME280;12006;42.666;23.326;2023-07-31T01:57:36;24254.13;;;20.60;100.00
23659;BME280;12006;42.666;23.326;2023-07-31T02:00:02;24576.38;;;20.59;100.00
23659;BME280;12006;42.666;23.326;2023-07-31T02:02:27;24319.16;;;20.56;100.00
23659;BME280;12006;42.666;23.326;2023-07-31T02:04:53;25130.84;;;20.50;100.00
23659;BME280;12006;42.666;23.326;2023-07-31T02:07:18;25298.75;;;20.53;100.00
23659;BME280;12006;42.666;23.326;2023-07-31T02:09:43;25942.69;;;20.55;100.00
23659;BME280;12006;42.666;23.326;2023-07-31T02:12:09;25789.19;;;20.56;100.00
23659;BME280;12006;42.666;23.326;2023-07-31T02:14:34;25470.81;;;20.49;100.00
23659;BME280;12006;42.666;23.326;2023-07-31T02:17:00;25876.31;;;20.56;100.00
23659;BME280;12006;42.666;23.326;2023-07-31T02:19:26;25761.47;;;20.57;100.00
23659;BME280;12006;42.666;23.326;2023-07-31T02:21:51;25656.91;;;20.58;100.00
23659;BME280;12006;42.666;23.326;2023-07-31T02:24:16;25478.97;;;20.61;100.00
23659;BME280;12006;42.666;23.326;2023-07-31T02:26:42;25065.09;;;20.69;100.00
23659;BME280;12006;42.666;23.326;2023-07-31T02:29:08;23765.59;;;20.73;100.00
23659;BME280;12006;42.666;23.326;2023-07-31T02:31:33;23285.19;;;20.81;100.00
23659;BME280;12006;42.666;23.326;2023-07-31T02:33:59;22720.69;;;20.78;100.00
23659;BME280;12006;42.666;23.326;2023-07-31T02:36:24;22564.00;;;20.83;100.00
23659;BME280;12006;42.666;23.326;2023-07-31T02:38:49;22136.84;;;20.78;100.00
23659;BME280;12006;42.666;23.326;2023-07-31T02:41:15;21544.88;;;20.83;100.00
23659;BME280;12006;42.666;23.326;2023-07-31T02:43:40;21277.28;;;20.93;100.00
23659;BME280;12006;42.666;23.326;2023-07-31T02:46:06;20581.09;;;20.93;100.00
23659;BME280;12006;42.666;23.326;2023-07-31T02:48:31;19728.53;;;21.00;100.00
23659;BME280;12006;42.666;23.326;2023-07-31T02:50:57;18264.78;;;21.00;100.00
23659;BME280;12006;42.666;23.326;2023-07-31T02:53:22;17443.78;;;21.09;100.00
23659;BME280;12006;42.666;23.326;2023-07-31T02:55:48;16121.97;;;21.11;100.00
23659;BME280;12006;42.666;23.326;2023-07-31T02:58:13;14509.41;;;21.15;100.00
23659;BME280;12006;42.666;23.326;2023-07-31T03:00:43;11581.03;;;21.19;100.00
23659;BME280;12006;42.666;23.326;2023-07-31T03:03:08;10238.44;;;21.24;100.00
23659;BME280;12006;42.666;23.326;2023-07-31T03:05:33;10317.06;;;21.22;100.00
23659;BME280;12006;42.666;23.326;2023-07-31T03:07:59;9604.84;;;21.24;100.00
23659;BME280;12006;42.666;23.326;2023-07-31T03:10:24;8912.44;;;21.22;100.00
23659;BME280;12006;42.666;23.326;2023-07-31T03:12:49;8355.34;;;21.33;100.00
23659;BME280;12006;42.666;23.326;2023-07-31T03:15:15;8435.53;;;21.25;100.00
23659;BME280;12006;42.666;23.326;2023-07-31T03:17:40;8354.19;;;21.27;100.00
23659;BME280;12006;42.666;23.326;2023-07-31T03:20:06;8503.25;;;21.32;100.00
23659;BME280;12006;42.666;23.326;2023-07-31T03:22:32;8095.59;;;21.37;100.00
23659;BME280;12006;42.666;23.326;2023-07-31T03:24:57;6442.06;;;21.27;100.00
23659;BME280;12006;42.666;23.326;2023-07-31T03:27:22;7924.16;;;21.35;100.00
23659;BME280;12006;42.666;23.326;2023-07-31T03:29:48;7871.63;;;21.41;100.00
23659;BME280;12006;42.666;23.326;2023-07-31T03:32:15;7860.31;;;21.35;100.00
23659;BME280;12006;42.666;23.326;2023-07-31T03:34:40;7829.69;;;21.35;100.00
23659;BME280;12006;42.666;23.326;2023-07-31T03:37:05;7036.97;;;21.43;100.00
23659;BME280;12006;42.666;23.326;2023-07-31T03:39:31;6465.03;;;21.42;100.00
23659;BME280;12006;42.666;23.326;2023-07-31T03:41:56;5711.78;;;21.41;100.00
23659;BME280;12006;42.666;23.326;2023-07-31T03:44:21;5297.78;;;21.37;100.00
23659;BME280;12006;42.666;23.326;2023-07-31T03:46:47;5012.25;;;21.39;100.00
23659;BME280;12006;42.666;23.326;2023-07-31T03:49:12;4818.72;;;21.42;100.00
23659;BME280;12006;42.666;23.326;2023-07-31T03:51:38;5052.13;;;21.32;100.00
23659;BME280;12006;42.666;23.326;2023-07-31T03:54:03;4546.41;;;21.28;100.00
23659;BME280;12006;42.666;23.326;2023-07-31T03:56:28;4735.03;;;21.07;100.00
23659;BME280;12006;42.666;23.326;2023-07-31T03:58:54;6285.91;;;21.24;100.00
23659;BME280;12006;42.666;23.326;2023-07-31T04:01:19;5458.06;;;21.33;100.00
23659;BME280;12006;42.666;23.326;2023-07-31T04:03:45;5463.38;;;21.35;100.00
23659;BME280;12006;42.666;23.326;2023-07-31T04:06:11;5751.06;;;21.31;100.00
23659;BME280;12006;42.666;23.326;2023-07-31T04:08:37;5883.19;;;21.27;100.00
23659;BME280;12006;42.666;23.326;2023-07-31T04:11:02;5892.88;;;21.23;100.00
23659;BME280;12006;42.666;23.326;2023-07-31T04:13:29;6100.31;;;21.28;100.00
23659;BME280;12006;42.666;23.326;2023-07-31T04:15:55;5627.72;;;21.25;100.00
23659;BME280;12006;42.666;23.326;2023-07-31T04:18:20;6457.47;;;21.27;100.00
23659;BME280;12006;42.666;23.326;2023-07-31T04:20:46;5741.25;;;21.33;100.00
23659;BME280;12006;42.666;23.326;2023-07-31T04:23:11;5695.97;;;21.37;100.00
23659;BME280;12006;42.666;23.326;2023-07-31T04:25:36;4578.81;;;21.41;100.00
23659;BME280;12006;42.666;23.326;2023-07-31T04:28:02;4725.81;;;21.34;100.00
23659;BME280;12006;42.666;23.326;2023-07-31T04:30:27;5305.03;;;21.34;100.00
23659;BME280;12006;42.666;23.326;2023-07-31T04:32:53;5496.63;;;21.35;100.00
23659;BME280;12006;42.666;23.326;2023-07-31T04:35:18;3173.31;;;21.43;100.00
23659;BME280;12006;42.666;23.326;2023-07-31T04:37:43;4542.31;;;21.35;100.00
23659;BME280;12006;42.666;23.326;2023-07-31T04:40:11;1024.31;;;21.51;100.00
23659;BME280;12006;42.666;23.326;2023-07-31T04:42:36;15.09;;;21.57;100.00
23659;BME280;12006;42.666;23.326;2023-07-31T04:45:02;-1580.31;;;21.59;100.00
23659;BME280;12006;42.666;23.326;2023-07-31T04:47:28;-1718.00;;;21.55;100.00
23659;BME280;12006;42.666;23.326;2023-07-31T04:49:53;-2390.63;;;21.54;100.00
23659;BME280;12006;42.666;23.326;2023-07-31T04:52:18;-2696.22;;;21.62;100.00
23659;BME280;12006;42.666;23.326;2023-07-31T04:54:44;-2726.81;;;21.62;100.00
23659;BME280;12006;42.666;23.326;2023-07-31T04:57:09;-4046.28;;;21.69;100.00
23659;BME280;12006;42.666;23.326;2023-07-31T04:59:34;-5490.50;;;21.79;100.00
23659;BME280;12006;42.666;23.326;2023-07-31T05:02:00;-7830.53;;;21.87;100.00
23659;BME280;12006;42.666;23.326;2023-07-31T05:04:25;-9281.88;;;21.95;100.00
23659;BME280;12006;42.666;23.326;2023-07-31T05:06:50;-10442.41;;;21.98;100.00
23659;BME280;12006;42.666;23.326;2023-07-31T05:09:16;-7029.72;;;22.03;100.00
23659;BME280;12006;42.666;23.326;2023-07-31T05:11:41;-14898.16;;;22.33;100.00
23659;BME280;12006;42.666;23.326;2023-07-31T05:14:08;-15935.13;;;22.32;100.00
23659;BME280;12006;42.666;23.326;2023-07-31T05:16:33;-14195.78;;;22.29;100.00
23659;BME280;12006;42.666;23.326;2023-07-31T05:18:59;-18515.19;;;22.47;100.00
23659;BME280;12006;42.666;23.326;2023-07-31T05:21:24;-22090.25;;;22.62;100.00
23659;BME280;12006;42.666;23.326;2023-07-31T05:23:50;-21849.78;;;22.73;100.00
23659;BME280;12006;42.666;23.326;2023-07-31T05:26:15;-24556.25;;;22.68;100.00
23659;BME280;12006;42.666;23.326;2023-07-31T05:28:40;-24552.00;;;22.56;100.00
23659;BME280;12006;42.666;23.326;2023-07-31T05:31:06;-24559.16;;;22.77;100.00
23659;BME280;12006;42.666;23.326;2023-07-31T05:33:32;-24560.19;;;22.80;100.00
23659;BME280;12006;42.666;23.326;2023-07-31T05:35:58;-24563.25;;;22.89;100.00
23659;BME280;12006;42.666;23.326;2023-07-31T05:38:23;-24562.06;;;22.85;100.00
23659;BME280;12006;42.666;23.326;2023-07-31T05:40:49;-24563.94;;;22.91;100.00
23659;BME280;12006;42.666;23.326;2023-07-31T05:43:14;-24564.59;;;22.93;100.00
23659;BME280;12006;42.666;23.326;2023-07-31T05:45:41;-24564.28;;;22.92;100.00
23659;BME280;12006;42.666;23.326;2023-07-31T05:48:06;-24565.13;;;22.94;100.00
23659;BME280;12006;42.666;23.326;2023-07-31T05:50:32;-24562.72;;;22.87;100.00
23659;BME280;12006;42.666;23.326;2023-07-31T05:52:57;-24558.47;;;22.75;100.00
23659;BME280;12006;42.666;23.326;2023-07-31T05:55:24;-24553.03;;;22.59;100.00
23659;BME280;12006;42.666;23.326;2023-07-31T05:57:52;-24555.06;;;22.65;100.00
23659;BME280;12006;42.666;23.326;2023-07-31T06:00:17;-24550.31;;;22.51;100.00
23659;BME280;12006;42.666;23.326;2023-07-31T06:02:42;-24545.38;;;22.37;100.00
23659;BME280;12006;42.666;23.326;2023-07-31T06:05:08;-24545.88;;;22.38;100.00
23659;BME280;12006;42.666;23.326;2023-07-31T06:07:33;-24544.50;;;22.34;100.00
23659;BME280;12006;42.666;23.326;2023-07-31T06:09:59;-24545.19;;;22.36;100.00
23659;BME280;12006;42.666;23.326;2023-07-31T06:12:30;-24550.31;;;22.51;100.00
23659;BME280;12006;42.666;23.326;2023-07-31T06:14:56;-24554.56;;;22.63;100.00
23659;BME280;12006;42.666;23.326;2023-07-31T06:17:21;-24566.66;;;22.99;100.00
23659;BME280;12006;42.666;23.326;2023-07-31T06:19:47;-24571.44;;;23.13;100.00
23659;BME280;12006;42.666;23.326;2023-07-31T06:22:12;-24576.19;;;23.26;100.00
23659;BME280;12006;42.666;23.326;2023-07-31T06:24:38;-24583.34;;;23.47;100.00
23659;BME280;12006;42.666;23.326;2023-07-31T06:27:03;-24581.63;;;23.42;100.00
23659;BME280;12006;42.666;23.326;2023-07-31T06:29:29;-24585.03;;;23.52;100.00
23659;BME280;12006;42.666;23.326;2023-07-31T06:31:55;-24585.38;;;23.53;100.00
23659;BME280;12006;42.666;23.326;2023-07-31T06:34:20;-24585.38;;;23.53;100.00
23659;BME280;12006;42.666;23.326;2023-07-31T06:36:46;-24583.34;;;23.47;100.00
23659;BME280;12006;42.666;23.326;2023-07-31T06:39:11;-24583.00;;;23.46;100.00
23659;BME280;12006;42.666;23.326;2023-07-31T06:41:38;-24577.91;;;23.31;100.00
23659;BME280;12006;42.666;23.326;2023-07-31T06:44:03;-24571.09;;;23.12;100.00
23659;BME280;12006;42.666;23.326;2023-07-31T06:46:28;-24570.06;;;23.09;100.00
23659;BME280;12006;42.666;23.326;2023-07-31T06:48:54;-24569.72;;;23.08;100.00
23659;BME280;12006;42.666;23.326;2023-07-31T06:51:20;-24563.94;;;22.91;100.00
23659;BME280;12006;42.666;23.326;2023-07-31T06:53:46;-24571.78;;;23.14;100.00
23659;BME280;12006;42.666;23.326;2023-07-31T06:56:11;-24571.44;;;23.13;100.00
23659;BME280;12006;42.666;23.326;2023-07-31T06:58:36;-24571.44;;;23.13;100.00
23659;BME280;12006;42.666;23.326;2023-07-31T07:01:02;-24570.75;;;23.11;100.00
23659;BME280;12006;42.666;23.326;2023-07-31T07:03:27;-24573.13;;;23.18;100.00
23659;BME280;12006;42.666;23.326;2023-07-31T07:05:52;-24574.16;;;23.20;100.00
23659;BME280;12006;42.666;23.326;2023-07-31T07:08:18;-24575.16;;;23.23;100.00
23659;BME280;12006;42.666;23.326;2023-07-31T07:10:43;-24571.94;;;23.14;100.00
23659;BME280;12006;42.666;23.326;2023-07-31T07:13:09;-24570.91;;;23.11;100.00
23659;BME280;12006;42.666;23.326;2023-07-31T07:15:34;-24573.13;;;23.18;100.00
23659;BME280;12006;42.666;23.326;2023-07-31T07:18:00;-24571.78;;;23.14;100.00
23659;BME280;12006;42.666;23.326;2023-07-31T07:20:26;-24561.88;;;22.85;100.00
23659;BME280;12006;42.666;23.326;2023-07-31T07:22:51;-24567.00;;;23.00;100.00
23659;BME280;12006;42.666;23.326;2023-07-31T07:25:16;-24573.13;;;23.18;100.00
23659;BME280;12006;42.666;23.326;2023-07-31T07:27:42;-24576.19;;;23.26;100.00
23659;BME280;12006;42.666;23.326;2023-07-31T07:30:07;-24575.50;;;23.24;100.00
23659;BME280;12006;42.666;23.326;2023-07-31T07:32:33;-24574.84;;;23.22;100.00
23659;BME280;12006;42.666;23.326;2023-07-31T07:34:59;-24581.97;;;23.43;100.00
23659;BME280;12006;42.666;23.326;2023-07-31T07:37:24;-24584.69;;;23.51;100.00
23659;BME280;12006;42.666;23.326;2023-07-31T07:39:50;-24585.72;;;23.54;100.00
23659;BME280;12006;42.666;23.326;2023-07-31T07:42:15;-24589.47;;;23.65;100.00
23659;BME280;12006;42.666;23.326;2023-07-31T07:44:40;-24583.84;;;23.49;100.00
23659;BME280;12006;42.666;23.326;2023-07-31T07:47:06;-24596.09;;;23.84;100.00
23659;BME280;12006;42.666;23.326;2023-07-31T07:49:33;-24595.25;;;23.82;100.00
23659;BME280;12006;42.666;23.326;2023-07-31T07:51:58;-24607.16;;;24.17;100.00
23659;BME280;12006;42.666;23.326;2023-07-31T07:54:24;-24603.59;;;24.06;100.00
23659;BME280;12006;42.666;23.326;2023-07-31T07:56:49;-24591.53;;;23.71;100.00
23659;BME280;12006;42.666;23.326;2023-07-31T07:59:15;-24594.59;;;23.80;100.00
23659;BME280;12006;42.666;23.326;2023-07-31T08:01:40;-24595.59;;;23.83;100.00
23659;BME280;12006;42.666;23.326;2023-07-31T08:04:05;-24600.88;;;23.98;100.00
23659;BME280;12006;42.666;23.326;2023-07-31T08:06:31;-24602.06;;;24.02;100.00
23659;BME280;12006;42.666;23.326;2023-07-31T08:08:56;-24599.69;;;23.95;100.00
23659;BME280;12006;42.666;23.326;2023-07-31T08:11:22;-24601.06;;;23.99;100.00
23659;BME280;12006;42.666;23.326;2023-07-31T08:13:49;-24604.13;;;24.08;100.00
23659;BME280;12006;42.666;23.326;2023-07-31T08:16:15;-24609.22;;;24.23;100.00
23659;BME280;12006;42.666;23.326;2023-07-31T08:18:40;-24620.97;;;24.57;100.00
23659;BME280;12006;42.666;23.326;2023-07-31T08:21:07;-24624.88;;;24.68;100.00
23659;BME280;12006;42.666;23.326;2023-07-31T08:23:33;-24624.88;;;24.68;100.00
23659;BME280;12006;42.666;23.326;2023-07-31T08:25:58;-24628.28;;;24.78;100.00
23659;BME280;12006;42.666;23.326;2023-07-31T08:28:24;-24633.88;;;24.95;100.00
23659;BME280;12006;42.666;23.326;2023-07-31T08:30:49;-24640.19;;;25.13;100.00
23659;BME280;12006;42.666;23.326;2023-07-31T08:33:15;-24639.31;;;25.10;100.00
23659;BME280;12006;42.666;23.326;2023-07-31T08:35:41;-24631.66;;;24.88;100.00
23659;BME280;12006;42.666;23.326;2023-07-31T08:38:07;-24626.91;;;24.74;100.00
23659;BME280;12006;42.666;23.326;2023-07-31T08:40:36;-24625.88;;;24.71;100.00
23659;BME280;12006;42.666;23.326;2023-07-31T08:43:01;-24631.00;;;24.86;100.00
23659;BME280;12006;42.666;23.326;2023-07-31T08:45:28;-24637.63;;;25.06;100.00
23659;BME280;12006;42.666;23.326;2023-07-31T08:47:54;-24640.50;;;25.14;100.00
23659;BME280;12006;42.666;23.326;2023-07-31T08:50:21;-24644.25;;;25.25;100.00
23659;BME280;12006;42.666;23.326;2023-07-31T08:52:48;-24640.84;;;25.15;100.00
23659;BME280;12006;42.666;23.326;2023-07-31T08:55:14;-24638.47;;;25.08;100.00
23659;BME280;12006;42.666;23.326;2023-07-31T08:57:41;-24640.19;;;25.13;100.00
23659;BME280;12006;42.666;23.326;2023-07-31T09:00:08;-24633.88;;;24.95;100.00
23659;BME280;12006;42.666;23.326;2023-07-31T09:05:09;-24637.47;;;25.05;100.00
23659;BME280;12006;42.666;23.326;2023-07-31T09:07:36;-24644.94;;;25.27;100.00
23659;BME280;12006;42.666;23.326;2023-07-31T09:10:03;-24657.84;;;25.65;100.00
23659;BME280;12006;42.666;23.326;2023-07-31T09:12:29;-24665.00;;;25.85;100.00
23659;BME280;12006;42.666;23.326;2023-07-31T09:14:54;-24671.97;;;26.06;100.00
23659;BME280;12006;42.666;23.326;2023-07-31T09:19:56;-24656.50;;;25.61;100.00
23659;BME280;12006;42.666;23.326;2023-07-31T09:22:34;-24653.78;;;25.53;100.00
23659;BME280;12006;42.666;23.326;2023-07-31T09:25:22;-24660.91;;;25.73;100.00
23659;BME280;12006;42.666;23.326;2023-07-31T09:27:53;-24678.59;;;26.25;100.00
23659;BME280;12006;42.666;23.326;2023-07-31T09:30:19;-24677.22;;;26.21;100.00
23659;BME280;12006;42.666;23.326;2023-07-31T09:32:45;-24676.53;;;26.19;100.00
23659;BME280;12006;42.666;23.326;2023-07-31T09:37:51;-24670.78;;;26.02;100.00
23659;BME280;12006;42.666;23.326;2023-07-31T09:42:53;-24659.38;;;25.69;100.00
23659;BME280;12006;42.666;23.326;2023-07-31T09:45:18;-24669.91;;;26.00;100.00
23659;BME280;12006;42.666;23.326;2023-07-31T09:47:47;-24691.50;;;26.63;100.00
23659;BME280;12006;42.666;23.326;2023-07-31T09:50:16;-24707.13;;;27.08;98.22
23659;BME280;12006;42.666;23.326;2023-07-31T09:52:42;-24704.06;;;26.99;94.90
23659;BME280;12006;42.666;23.326;2023-07-31T09:55:08;-24701.50;;;26.92;97.76
23659;BME280;12006;42.666;23.326;2023-07-31T09:57:38;-24707.78;;;27.10;96.48
23659;BME280;12006;42.666;23.326;2023-07-31T10:00:05;-24712.53;;;27.24;93.01
23659;BME280;12006;42.666;23.326;2023-07-31T10:02:31;-24709.81;;;27.16;92.78
23659;BME280;12006;42.666;23.326;2023-07-31T10:05:01;-24704.75;;;27.01;92.03
23659;BME280;12006;42.666;23.326;2023-07-31T10:07:30;-24709.81;;;27.16;93.75
23659;BME280;12006;42.666;23.326;2023-07-31T10:10:00;-24711.19;;;27.20;94.53
23659;BME280;12006;42.666;23.326;2023-07-31T10:12:26;-24715.94;;;27.34;88.27
23659;BME280;12006;42.666;23.326;2023-07-31T10:14:55;-24706.09;;;27.05;89.82
23659;BME280;12006;42.666;23.326;2023-07-31T10:17:25;-24704.06;;;26.99;89.67
23659;BME280;12006;42.666;23.326;2023-07-31T10:19:51;-24706.09;;;27.05;86.68
23659;BME280;12006;42.666;23.326;2023-07-31T10:22:19;-24714.25;;;27.29;84.95
23659;BME280;12006;42.666;23.326;2023-07-31T10:24:48;-24715.94;;;27.34;84.79
23659;BME280;12006;42.666;23.326;2023-07-31T10:27:14;-24721.88;;;27.52;87.52
23659;BME280;12006;42.666;23.326;2023-07-31T10:29:41;-24735.78;;;27.92;84.36
23659;BME280;12006;42.666;23.326;2023-07-31T10:32:09;-24740.22;;;28.05;80.45
23659;BME280;12006;42.666;23.326;2023-07-31T10:34:36;-24742.41;;;28.12;81.97
23659;BME280;12006;42.666;23.326;2023-07-31T10:37:40;-24732.06;;;27.81;81.00
23659;BME280;12006;42.666;23.326;2023-07-31T10:40:11;-24729.19;;;27.73;81.46
23659;BME280;12006;42.666;23.326;2023-07-31T10:45:12;-24732.75;;;27.83;81.19
23659;BME280;12006;42.666;23.326;2023-07-31T10:47:42;-24735.97;;;27.93;82.77
23659;BME280;12006;42.666;23.326;2023-07-31T10:50:19;-24736.66;;;27.95;77.23
23659;BME280;12006;42.666;23.326;2023-07-31T10:58:12;-24722.72;;;27.54;83.59
23659;BME280;12006;42.666;23.326;2023-07-31T11:00:42;-24728.50;;;27.71;80.68
23659;BME280;12006;42.666;23.326;2023-07-31T11:03:10;-24735.13;;;27.90;79.92
23659;BME280;12006;42.666;23.326;2023-07-31T11:06:03;-24751.22;;;28.37;79.03
23659;BME280;12006;42.666;23.326;2023-07-31T11:08:31;-24752.06;;;28.40;74.97
23659;BME280;12006;42.666;23.326;2023-07-31T11:15:58;-24744.78;;;28.18;72.43
23659;BME280;12006;42.666;23.326;2023-07-31T11:18:26;-24751.06;;;28.37;74.71
23659;BME280;12006;42.666;23.326;2023-07-31T11:20:52;-24766.66;;;28.82;70.70
23659;BME280;12006;42.666;23.326;2023-07-31T11:23:19;-24771.41;;;28.96;69.59
23659;BME280;12006;42.666;23.326;2023-07-31T11:25:45;-24776.31;;;29.11;69.25
23659;BME280;12006;42.666;23.326;2023-07-31T11:28:13;-24780.91;;;29.24;67.65
23659;BME280;12006;42.666;23.326;2023-07-31T11:30:39;-24775.81;;;29.09;67.46
23659;BME280;12006;42.666;23.326;2023-07-31T11:33:06;-24778.34;;;29.17;67.20
23659;BME280;12006;42.666;23.326;2023-07-31T11:35:40;-24777.34;;;29.14;66.03
23659;BME280;12006;42.666;23.326;2023-07-31T11:38:11;-24776.66;;;29.12;66.97
23659;BME280;12006;42.666;23.326;2023-07-31T11:40:43;-24777.34;;;29.14;68.34
23659;BME280;12006;42.666;23.326;2023-07-31T11:43:09;-24768.53;;;28.88;67.28
23659;BME280;12006;42.666;23.326;2023-07-31T11:45:37;-24766.84;;;28.83;70.50
23659;BME280;12006;42.666;23.326;2023-07-31T11:48:03;-24749.38;;;28.32;72.25
23659;BME280;12006;42.666;23.326;2023-07-31T11:50:33;-24743.09;;;28.14;72.69
23659;BME280;12006;42.666;23.326;2023-07-31T11:53:00;-24752.94;;;28.42;72.60
23659;BME280;12006;42.666;23.326;2023-07-31T11:55:31;-24758.00;;;28.57;72.53
23659;BME280;12006;42.666;23.326;2023-07-31T11:57:57;-24758.69;;;28.59;72.18
23659;BME280;12006;42.666;23.326;2023-07-31T12:00:24;-24771.56;;;28.97;70.65
23659;BME280;12006;42.666;23.326;2023-07-31T12:02:50;-24771.91;;;28.98;70.41
23659;BME280;12006;42.666;23.326;2023-07-31T12:05:17;-24778.03;;;29.16;70.94
23659;BME280;12006;42.666;23.326;2023-07-31T12:07:44;-24782.59;;;29.29;68.34
23659;BME280;12006;42.666;23.326;2023-07-31T12:10:10;-24779.72;;;29.21;67.16
23659;BME280;12006;42.666;23.326;2023-07-31T12:12:36;-24780.56;;;29.23;68.46
23659;BME280;12006;42.666;23.326;2023-07-31T12:15:01;-24783.09;;;29.31;67.47
23659;BME280;12006;42.666;23.326;2023-07-31T12:17:27;-24790.91;;;29.53;69.17
23659;BME280;12006;42.666;23.326;2023-07-31T12:19:52;-24798.84;;;29.77;67.67
23659;BME280;12006;42.666;23.326;2023-07-31T12:22:19;-24795.47;;;29.67;65.50
23659;BME280;12006;42.666;23.326;2023-07-31T12:24:46;-24784.78;;;29.36;69.20
23659;BME280;12006;42.666;23.326;2023-07-31T12:27:12;-24765.31;;;28.79;72.43
23659;BME280;12006;42.666;23.326;2023-07-31T12:29:39;-24776.31;;;29.11;72.58
23659;BME280;12006;42.666;23.326;2023-07-31T12:32:22;-24768.69;;;28.88;71.71
23659;BME280;12006;42.666;23.326;2023-07-31T12:34:48;-24774.28;;;29.05;72.38
23659;BME280;12006;42.666;23.326;2023-07-31T12:37:13;-24778.53;;;29.17;68.01
23659;BME280;12006;42.666;23.326;2023-07-31T12:39:39;-24782.41;;;29.29;66.07
23659;BME280;12006;42.666;23.326;2023-07-31T12:42:04;-24786.84;;;29.42;65.27
23659;BME280;12006;42.666;23.326;2023-07-31T12:44:30;-24785.81;;;29.39;64.45
23659;BME280;12006;42.666;23.326;2023-07-31T12:46:55;-24792.75;;;29.59;66.99
23659;BME280;12006;42.666;23.326;2023-07-31T12:49:21;-24776.31;;;29.11;65.20
23659;BME280;12006;42.666;23.326;2023-07-31T12:51:46;-24766.31;;;28.82;65.55
23659;BME280;12006;42.666;23.326;2023-07-31T12:54:12;-24761.41;;;28.67;67.32
23659;BME280;12006;42.666;23.326;2023-07-31T12:56:37;-24771.56;;;28.97;69.00
23659;BME280;12006;42.666;23.326;2023-07-31T12:59:03;-24772.25;;;28.99;67.69
23659;BME280;12006;42.666;23.326;2023-07-31T13:01:28;-24768.19;;;28.87;67.09
23659;BME280;12006;42.666;23.326;2023-07-31T13:03:53;-24763.78;;;28.74;66.50